Time;durP1;ratioP1;P1;durP2;ratioP2;P2;SDS_P1;SDS_P2;PMS_P1;PMS_P2;Temp;Humidity;BMP_temperature;BMP_pressure;BME280_temperature;BME280_humidity;BME280_pressure;Samples;Min_cycle;Max_cycle;Signal;HPM_P1;HPM_P2
2022/08/07 00:01:05;;;;;;;9.82;2.75;;;;;;;;;;5008676;28;20538;-45
2022/08/07 00:03:31;;;;;;;5.93;2.33;;;;;;;;;;5006850;28;20360;-47
2022/08/07 00:05:57;;;;;;;2.92;2.25;;;;;;;;;;5007565;28;20435;-47
2022/08/07 00:08:23;;;;;;;10.90;2.55;;;;;;;;;;5007044;28;20041;-49
2022/08/07 00:10:49;;;;;;;2.70;2.50;;;;;;;;;;5008408;28;20045;-48
2022/08/07 00:13:16;;;;;;;4.50;2.67;;;;;;;;;;5007247;28;20678;-46
2022/08/07 00:15:42;;;;;;;11.18;3.10;;;;;;;;;;5007423;28;20028;-46
2022/08/07 00:18:08;;;;;;;2.58;2.40;;;;;;;;;;5006363;28;20042;-48
2022/08/07 00:20:35;;;;;;;2.83;2.45;;;;;;;;;;5008183;28;20427;-49
2022/08/07 00:23:01;;;;;;;4.53;2.83;;;;;;;;;;5007362;28;20030;-48
2022/08/07 00:25:27;;;;;;;4.47;2.60;;;;;;;;;;5005635;28;20045;-47
2022/08/07 00:27:53;;;;;;;5.07;2.45;;;;;;;;;;5002594;28;20030;-48
2022/08/07 00:30:19;;;;;;;4.57;2.50;;;;;;;;;;5007593;28;20042;-46
2022/08/07 00:32:49;;;;;;;2.85;1.90;;;;;;;;;;5007140;28;20041;-46
2022/08/07 00:35:17;;;;;;;3.28;2.60;;;;;;;;;;5010314;28;20088;-47
2022/08/07 00:37:43;;;;;;;3.47;2.60;;;;;;;;;;5008176;28;20026;-45
2022/08/07 00:40:09;;;;;;;5.13;2.60;;;;;;;;;;5004525;28;20038;-46
2022/08/07 00:42:35;;;;;;;5.72;2.47;;;;;;;;;;5004014;28;20045;-51
2022/08/07 00:45:01;;;;;;;3.65;2.50;;;;;;;;;;5007417;28;20140;-50
2022/08/07 00:47:28;;;;;;;5.35;2.30;;;;;;;;;;5008204;28;20046;-47
2022/08/07 00:49:53;;;;;;;5.15;2.90;;;;;;;;;;5005148;28;20037;-51
2022/08/07 00:52:19;;;;;;;5.40;2.58;;;;;;;;;;5007972;28;20036;-49
2022/08/07 00:54:45;;;;;;;2.72;2.47;;;;;;;;;;5007903;28;20041;-49
2022/08/07 00:57:12;;;;;;;6.00;2.40;;;;;;;;;;5005942;28;20021;-47
2022/08/07 00:59:37;;;;;;;5.88;2.80;;;;;;;;;;5005519;28;20058;-46
2022/08/07 01:02:07;;;;;;;3.78;2.58;;;;;;;;;;5006464;28;20021;-46
2022/08/07 01:04:33;;;;;;;6.65;2.90;;;;;;;;;;5004617;28;20140;-52
2022/08/07 01:07:00;;;;;;;4.00;2.50;;;;;;;;;;5006011;28;20026;-46
2022/08/07 01:09:26;;;;;;;3.85;2.38;;;;;;;;;;5005949;28;20032;-48
2022/08/07 01:11:53;;;;;;;5.40;2.50;;;;;;;;;;5006083;28;20026;-50
2022/08/07 01:14:23;;;;;;;3.78;2.28;;;;;;;;;;5006211;28;20032;-46
2022/08/07 01:16:50;;;;;;;6.47;2.63;;;;;;;;;;4998765;28;20034;-52
2022/08/07 01:19:17;;;;;;;5.60;2.33;;;;;;;;;;5007684;28;20409;-47
2022/08/07 01:21:44;;;;;;;3.45;2.40;;;;;;;;;;5006842;28;20566;-46
2022/08/07 01:24:11;;;;;;;4.60;2.38;;;;;;;;;;5002964;28;20045;-46
2022/08/07 01:26:37;;;;;;;4.82;2.63;;;;;;;;;;5006730;28;20029;-48
2022/08/07 01:29:03;;;;;;;10.50;2.60;;;;;;;;;;5006677;28;20032;-48
2022/08/07 01:31:32;;;;;;;3.47;2.53;;;;;;;;;;5005792;28;20034;-45
2022/08/07 01:33:59;;;;;;;4.60;2.58;;;;;;;;;;5000870;28;20060;-45
2022/08/07 01:36:27;;;;;;;2.88;2.33;;;;;;;;;;5005249;28;20140;-46
2022/08/07 01:38:53;;;;;;;5.93;2.72;;;;;;;;;;5005251;28;20038;-46
2022/08/07 01:41:19;;;;;;;17.30;2.70;;;;;;;;;;5004756;28;20036;-46
2022/08/07 01:43:46;;;;;;;4.78;2.35;;;;;;;;;;5005640;28;20017;-46
2022/08/07 01:46:13;;;;;;;6.10;2.33;;;;;;;;;;5006086;28;20422;-46
2022/08/07 01:48:43;;;;;;;6.05;2.40;;;;;;;;;;5005239;28;20041;-51
2022/08/07 01:51:13;;;;;;;3.88;2.50;;;;;;;;;;5001439;28;20054;-48
2022/08/07 01:53:43;;;;;;;2.67;2.47;;;;;;;;;;5007660;28;20029;-46
2022/08/07 01:56:13;;;;;;;3.22;2.45;;;;;;;;;;5004075;28;20394;-47
2022/08/07 01:58:47;;;;;;;2.42;2.17;;;;;;;;;;5002265;28;20547;-50
2022/08/07 02:01:24;;;;;;;3.72;2.28;;;;;;;;;;5005824;28;21566;-50
2022/08/07 02:04:00;;;;;;;6.45;2.60;;;;;;;;;;5005001;28;20061;-47
2022/08/07 02:06:29;;;;;;;10.93;3.83;;;;;;;;;;5005834;28;20092;-48
2022/08/07 02:08:55;;;;;;;6.82;3.35;;;;;;;;;;5005202;28;20490;-47
2022/08/07 02:11:21;;;;;;;5.25;2.40;;;;;;;;;;5005916;28;20068;-45
2022/08/07 02:13:49;;;;;;;2.38;2.13;;;;;;;;;;5006771;28;20057;-48
2022/08/07 02:16:17;;;;;;;5.30;2.75;;;;;;;;;;5000903;28;20061;-47
2022/08/07 02:18:43;;;;;;;4.13;2.35;;;;;;;;;;5001710;28;20037;-49
2022/08/07 02:21:09;;;;;;;3.40;2.58;;;;;;;;;;5005606;28;20028;-46
2022/08/07 02:23:38;;;;;;;11.02;2.72;;;;;;;;;;5000252;28;20045;-47
2022/08/07 02:26:06;;;;;;;3.92;2.50;;;;;;;;;;5003492;28;20073;-45
2022/08/07 02:28:35;;;;;;;4.97;2.58;;;;;;;;;;5005109;28;20394;-46
2022/08/07 02:31:05;;;;;;;11.18;2.30;;;;;;;;;;5005234;28;20113;-49
2022/08/07 02:33:32;;;;;;;5.35;2.40;;;;;;;;;;5005315;28;20034;-48
2022/08/07 02:35:59;;;;;;;3.17;2.30;;;;;;;;;;5005812;28;20383;-47
2022/08/07 02:38:28;;;;;;;3.47;2.35;;;;;;;;;;5004606;28;20091;-49
2022/08/07 02:40:55;;;;;;;2.92;2.20;;;;;;;;;;5004218;28;20386;-45
2022/08/07 02:43:21;;;;;;;2.60;2.40;;;;;;;;;;5004542;28;20030;-49
2022/08/07 02:45:48;;;;;;;4.43;2.60;;;;;;;;;;5004859;28;20032;-47
2022/08/07 02:48:14;;;;;;;3.80;2.13;;;;;;;;;;5000961;28;20034;-45
2022/08/07 02:50:42;;;;;;;4.95;2.22;;;;;;;;;;5004573;28;20443;-48
2022/08/07 02:53:11;;;;;;;3.45;2.50;;;;;;;;;;5004755;28;20069;-46
2022/08/07 02:55:42;;;;;;;2.17;1.98;;;;;;;;;;5003626;28;20112;-46
2022/08/07 02:58:16;;;;;;;2.45;2.00;;;;;;;;;;5001342;28;20442;-48
2022/08/07 03:00:44;;;;;;;2.95;2.10;;;;;;;;;;5005625;28;20026;-48
2022/08/07 03:03:10;;;;;;;6.47;2.40;;;;;;;;;;5005280;28;20030;-48
2022/08/07 03:05:36;;;;;;;2.30;2.15;;;;;;;;;;5004511;28;20042;-49
2022/08/07 03:08:08;;;;;;;4.13;2.60;;;;;;;;;;5006072;28;20117;-45
2022/08/07 03:10:35;;;;;;;4.80;2.25;;;;;;;;;;5000608;28;20048;-46
2022/08/07 03:13:02;;;;;;;2.17;2.08;;;;;;;;;;5004043;28;20038;-45
2022/08/07 03:15:28;;;;;;;3.00;2.53;;;;;;;;;;5004686;28;21320;-45
2022/08/07 03:17:54;;;;;;;2.63;1.92;;;;;;;;;;5002235;28;20152;-46
2022/08/07 03:20:22;;;;;;;2.92;2.42;;;;;;;;;;5005916;28;20034;-45
2022/08/07 03:22:49;;;;;;;4.57;2.28;;;;;;;;;;5004879;28;20034;-48
2022/08/07 03:25:17;;;;;;;3.90;2.22;;;;;;;;;;5003775;28;20501;-47
2022/08/07 03:27:44;;;;;;;5.32;2.25;;;;;;;;;;5004889;28;20057;-46
2022/08/07 03:30:11;;;;;;;6.78;2.15;;;;;;;;;;4999341;28;20048;-49
2022/08/07 03:32:42;;;;;;;2.40;2.20;;;;;;;;;;5004293;28;20044;-48
2022/08/07 03:35:12;;;;;;;4.40;2.30;;;;;;;;;;5004950;28;20026;-48
2022/08/07 03:37:39;;;;;;;7.22;2.40;;;;;;;;;;5004740;28;20037;-45
2022/08/07 03:40:07;;;;;;;4.53;2.45;;;;;;;;;;5003973;28;20046;-48
2022/08/07 03:42:34;;;;;;;3.60;2.13;;;;;;;;;;5002040;28;20029;-46
2022/08/07 03:45:00;;;;;;;3.30;2.30;;;;;;;;;;5004614;28;20375;-48
2022/08/07 03:47:28;;;;;;;7.57;2.20;;;;;;;;;;5002239;28;20026;-47
2022/08/07 03:49:56;;;;;;;2.40;2.20;;;;;;;;;;5005226;28;20440;-49
2022/08/07 03:52:24;;;;;;;3.13;2.20;;;;;;;;;;5004675;28;20021;-50
2022/08/07 03:54:50;;;;;;;4.57;1.98;;;;;;;;;;5005046;28;20030;-46
2022/08/07 03:57:16;;;;;;;5.47;2.17;;;;;;;;;;5005298;28;20032;-46
2022/08/07 03:59:42;;;;;;;2.45;2.25;;;;;;;;;;5008691;28;20029;-47
2022/08/07 04:02:08;;;;;;;5.22;2.33;;;;;;;;;;5008317;28;20034;-48
2022/08/07 04:04:34;;;;;;;2.92;2.40;;;;;;;;;;5005844;28;20406;-49
2022/08/07 04:07:00;;;;;;;6.70;2.40;;;;;;;;;;5006538;28;20026;-49
2022/08/07 04:09:28;;;;;;;4.65;2.70;;;;;;;;;;5007236;28;20033;-45
2022/08/07 04:11:54;;;;;;;7.35;2.25;;;;;;;;;;5006615;28;20113;-48
2022/08/07 04:14:20;;;;;;;2.83;2.25;;;;;;;;;;5007378;28;20030;-46
2022/08/07 04:16:47;;;;;;;2.95;2.33;;;;;;;;;;5005368;28;20025;-46
2022/08/07 04:19:13;;;;;;;2.50;2.30;;;;;;;;;;5005937;28;20033;-47
2022/08/07 04:21:40;;;;;;;6.45;2.15;;;;;;;;;;5007850;28;20030;-49
2022/08/07 04:24:09;;;;;;;2.53;1.90;;;;;;;;;;5007229;28;20053;-50
2022/08/07 04:26:37;;;;;;;7.00;2.60;;;;;;;;;;5007002;28;20069;-49
2022/08/07 04:29:05;;;;;;;12.45;2.30;;;;;;;;;;5008204;28;20094;-49
2022/08/07 04:31:31;;;;;;;4.50;2.40;;;;;;;;;;5006794;28;20603;-47
2022/08/07 04:33:57;;;;;;;3.85;2.60;;;;;;;;;;5005795;28;20038;-45
2022/08/07 04:36:23;;;;;;;2.22;2.03;;;;;;;;;;5008232;28;20116;-47
2022/08/07 04:38:49;;;;;;;6.32;2.70;;;;;;;;;;5005710;28;20054;-46
2022/08/07 04:41:15;;;;;;;5.93;2.58;;;;;;;;;;5006935;28;20032;-46
2022/08/07 04:43:43;;;;;;;5.20;2.05;;;;;;;;;;5007464;28;20406;-46
2022/08/07 04:46:17;;;;;;;6.00;2.58;;;;;;;;;;5008032;28;20041;-45
2022/08/07 04:49:08;;;;;;;4.47;2.30;;;;;;;;;;5004108;28;20128;-47
2022/08/07 04:52:01;;;;;;;5.43;2.42;;;;;;;;;;5005169;28;20049;-49
2022/08/07 04:54:32;;;;;;;4.47;2.25;;;;;;;;;;5008223;28;20042;-48
2022/08/07 04:57:10;;;;;;;2.77;2.10;;;;;;;;;;5008109;28;20034;-47
2022/08/07 04:59:59;;;;;;;9.80;2.20;;;;;;;;;;5007139;28;20049;-46
2022/08/07 05:02:31;;;;;;;2.15;2.05;;;;;;;;;;5005461;28;20092;-48
2022/08/07 05:05:28;;;;;;;9.95;3.78;;;;;;;;;;5006376;28;20433;-48
2022/08/07 05:08:09;;;;;;;5.82;3.72;;;;;;;;;;5001780;28;20085;-46
2022/08/07 05:10:39;;;;;;;4.30;3.47;;;;;;;;;;5005916;28;20045;-46
2022/08/07 05:13:18;;;;;;;7.20;3.67;;;;;;;;;;5003677;28;20033;-48
2022/08/07 05:15:49;;;;;;;11.20;2.60;;;;;;;;;;5006879;28;20471;-46
2022/08/07 05:18:19;;;;;;;7.88;3.15;;;;;;;;;;5004928;28;20530;-49
2022/08/07 05:20:53;;;;;;;5.72;2.88;;;;;;;;;;5004647;28;20423;-47
2022/08/07 05:23:26;;;;;;;4.85;2.53;;;;;;;;;;5006188;28;20488;-48
2022/08/07 05:25:52;;;;;;;4.57;2.63;;;;;;;;;;5000684;28;20034;-47
2022/08/07 05:28:20;;;;;;;9.07;2.70;;;;;;;;;;5011433;28;20036;-45
2022/08/07 05:30:47;;;;;;;9.48;2.35;;;;;;;;;;5006836;28;20160;-49
2022/08/07 05:33:14;;;;;;;6.28;2.30;;;;;;;;;;5003197;28;20033;-46
2022/08/07 05:35:41;;;;;;;8.77;2.78;;;;;;;;;;5007423;28;20049;-49
2022/08/07 05:38:08;;;;;;;7.05;2.40;;;;;;;;;;5004003;28;20018;-45
2022/08/07 05:40:36;;;;;;;2.42;2.22;;;;;;;;;;5005966;28;20606;-46
2022/08/07 05:43:01;;;;;;;3.05;2.25;;;;;;;;;;5003440;28;20054;-47
2022/08/07 05:45:28;;;;;;;9.35;2.45;;;;;;;;;;5005614;28;20486;-45
2022/08/07 05:47:56;;;;;;;7.50;2.65;;;;;;;;;;5005753;28;20034;-47
2022/08/07 05:50:22;;;;;;;2.70;2.20;;;;;;;;;;5006368;28;20032;-48
2022/08/07 05:52:48;;;;;;;4.10;2.10;;;;;;;;;;5004935;28;20096;-47
2022/08/07 05:55:14;;;;;;;2.78;2.33;;;;;;;;;;5005463;28;20030;-47
2022/08/07 05:57:41;;;;;;;7.95;2.20;;;;;;;;;;5004080;28;20050;-46
2022/08/07 06:00:08;;;;;;;3.45;2.28;;;;;;;;;;5007030;28;20136;-46
2022/08/07 06:02:35;;;;;;;3.03;2.47;;;;;;;;;;5005978;28;20395;-45
2022/08/07 06:05:08;;;;;;;7.03;2.35;;;;;;;;;;5004542;28;20029;-48
2022/08/07 06:07:34;;;;;;;4.93;2.30;;;;;;;;;;5005354;28;20041;-46
2022/08/07 06:10:01;;;;;;;3.60;2.35;;;;;;;;;;5004911;28;20117;-49
2022/08/07 06:12:28;;;;;;;4.57;2.20;;;;;;;;;;5003099;28;20527;-47
2022/08/07 06:14:54;;;;;;;4.22;2.17;;;;;;;;;;5004950;28;20073;-47
2022/08/07 06:17:20;;;;;;;2.60;2.03;;;;;;;;;;5005611;28;20112;-47
2022/08/07 06:19:47;;;;;;;3.95;2.47;;;;;;;;;;5001409;28;20034;-48
2022/08/07 06:22:13;;;;;;;8.35;2.05;;;;;;;;;;5005258;28;20042;-50
2022/08/07 06:24:39;;;;;;;2.67;2.15;;;;;;;;;;5005786;28;20034;-45
2022/08/07 06:27:05;;;;;;;5.43;2.30;;;;;;;;;;5006150;28;20064;-45
2022/08/07 06:29:30;;;;;;;2.15;2.05;;;;;;;;;;5001732;28;20025;-49
2022/08/07 06:31:56;;;;;;;5.68;2.15;;;;;;;;;;5002807;28;20030;-46
2022/08/07 06:34:24;;;;;;;2.78;2.03;;;;;;;;;;5004847;28;20442;-48
2022/08/07 06:36:50;;;;;;;5.80;2.30;;;;;;;;;;5004238;28;20080;-47
2022/08/07 06:39:15;;;;;;;5.68;2.00;;;;;;;;;;5004795;28;20023;-47
2022/08/07 06:41:46;;;;;;;2.28;1.80;;;;;;;;;;5006101;28;20033;-48
2022/08/07 06:44:13;;;;;;;3.80;2.30;;;;;;;;;;5001972;28;20128;-46
2022/08/07 06:46:40;;;;;;;7.07;2.40;;;;;;;;;;5000546;28;20030;-46
2022/08/07 06:49:06;;;;;;;3.13;2.22;;;;;;;;;;5006453;28;20030;-46
2022/08/07 06:51:34;;;;;;;5.50;2.50;;;;;;;;;;5004670;28;20029;-45
2022/08/07 06:54:04;;;;;;;3.88;2.47;;;;;;;;;;5005719;28;20029;-45
2022/08/07 06:56:46;;;;;;;3.35;2.33;;;;;;;;;;5003776;28;20089;-47
2022/08/07 06:59:19;;;;;;;2.83;2.30;;;;;;;;;;5006193;28;20053;-46
2022/08/07 07:01:48;;;;;;;3.70;2.20;;;;;;;;;;5003955;28;20041;-46
2022/08/07 07:04:14;;;;;;;6.03;2.67;;;;;;;;;;5001582;28;20026;-46
2022/08/07 07:06:40;;;;;;;6.90;2.70;;;;;;;;;;5002101;28;20034;-48
2022/08/07 07:09:32;;;;;;;3.20;2.35;;;;;;;;;;5006681;28;20038;-46
2022/08/07 07:12:07;;;;;;;;;;;;;;;;;;5004290;28;20053;-48
2022/08/07 07:14:38;;;;;;;4.20;2.47;;;;;;;;;;5001547;28;20012;-48
2022/08/07 07:17:09;;;;;;;;;;;;;;;;;;5002137;28;20026;-46
2022/08/07 07:19:42;;;;;;;3.25;2.60;;;;;;;;;;5004418;28;20003;-48
2022/08/07 07:22:09;;;;;;;4.50;2.55;;;;;;;;;;5000918;28;20045;-46
2022/08/07 07:24:35;;;;;;;4.10;2.40;;;;;;;;;;5004865;28;20076;-45
2022/08/07 07:27:03;;;;;;;5.68;2.22;;;;;;;;;;5004661;28;20042;-47
2022/08/07 07:29:35;;;;;;;3.30;2.13;;;;;;;;;;5005228;28;20038;-45
2022/08/07 07:32:04;;;;;;;4.78;2.80;;;;;;;;;;5002659;28;20026;-46
2022/08/07 07:34:33;;;;;;;2.75;2.47;;;;;;;;;;5006536;28;20088;-45
2022/08/07 07:37:01;;;;;;;3.67;2.33;;;;;;;;;;5007412;28;20025;-50
2022/08/07 07:39:29;;;;;;;6.45;2.42;;;;;;;;;;5006799;28;20041;-46
2022/08/07 07:41:56;;;;;;;6.15;2.30;;;;;;;;;;5005159;28;20482;-47
2022/08/07 07:44:24;;;;;;;3.33;2.47;;;;;;;;;;5005265;28;20490;-47
2022/08/07 07:46:51;;;;;;;2.63;2.40;;;;;;;;;;5008297;28;20049;-51
2022/08/07 07:49:19;;;;;;;4.45;2.42;;;;;;;;;;5005823;28;20395;-46
2022/08/07 07:51:47;;;;;;;5.75;2.35;;;;;;;;;;5008720;28;20083;-48
2022/08/07 07:54:15;;;;;;;4.82;2.72;;;;;;;;;;5006337;28;20075;-47
2022/08/07 07:56:42;;;;;;;4.97;2.67;;;;;;;;;;5007995;28;20034;-46
2022/08/07 07:59:09;;;;;;;2.92;2.50;;;;;;;;;;5004956;28;20042;-52
2022/08/07 08:01:38;;;;;;;5.05;2.42;;;;;;;;;;5004822;28;20172;-48
2022/08/07 08:04:06;;;;;;;2.70;2.50;;;;;;;;;;5004147;28;20532;-48
2022/08/07 08:06:33;;;;;;;2.88;2.67;;;;;;;;;;5007243;28;20033;-46
2022/08/07 08:09:02;;;;;;;5.72;2.60;;;;;;;;;;5007805;28;20033;-46
2022/08/07 08:11:28;;;;;;;7.75;2.63;;;;;;;;;;5007954;28;20025;-47
2022/08/07 08:13:54;;;;;;;5.30;2.60;;;;;;;;;;5008721;28;20097;-48
2022/08/07 08:16:23;;;;;;;4.35;2.83;;;;;;;;;;5010081;28;20168;-51
2022/08/07 08:18:53;;;;;;;3.97;2.75;;;;;;;;;;5005405;28;20361;-48
2022/08/07 08:27:04;;;;;;;3.55;2.42;;;;;;;;;;5006507;28;20065;-46
2022/08/07 08:29:39;;;;;;;4.40;2.78;;;;;;;;;;5006615;28;21063;-49
2022/08/07 08:32:06;;;;;;;4.60;2.72;;;;;;;;;;5008988;28;20498;-48
2022/08/07 08:34:33;;;;;;;4.05;2.60;;;;;;;;;;5005798;28;20025;-49
2022/08/07 08:37:02;;;;;;;4.97;3.03;;;;;;;;;;5006924;28;20022;-50
2022/08/07 08:39:28;;;;;;;6.50;2.80;;;;;;;;;;4997910;28;20470;-50
2022/08/07 08:42:24;;;;;;;9.82;3.20;;;;;;;;;;5005536;28;20044;-46
2022/08/07 08:45:12;;;;;;;2.95;2.63;;;;;;;;;;5000877;28;20034;-47
2022/08/07 08:48:15;;;;;;;3.20;2.80;;;;;;;;;;5003714;28;20398;-48
2022/08/07 08:50:49;;;;;;;7.07;2.80;;;;;;;;;;5003869;28;20049;-46
2022/08/07 08:53:34;;;;;;;5.22;2.75;;;;;;;;;;5000695;28;20033;-47
2022/08/07 08:56:11;;;;;;;6.47;3.28;;;;;;;;;;5005253;28;20032;-46
2022/08/07 08:58:55;;;;;;;2.72;2.53;;;;;;;;;;4999387;28;20068;-47
2022/08/07 09:01:33;;;;;;;4.88;2.63;;;;;;;;;;5002359;28;20026;-48
2022/08/07 09:04:17;;;;;;;8.45;2.70;;;;;;;;;;5002830;28;20065;-46
2022/08/07 09:06:52;;;;;;;3.83;2.35;;;;;;;;;;5000835;28;20034;-47
2022/08/07 09:09:35;;;;;;;3.08;2.38;;;;;;;;;;5002029;28;20436;-46
2022/08/07 09:12:16;;;;;;;3.40;2.55;;;;;;;;;;5001711;28;20018;-47
2022/08/07 09:15:12;;;;;;;2.97;2.47;;;;;;;;;;5003223;28;20064;-45
2022/08/07 09:18:20;;;;;;;9.13;2.60;;;;;;;;;;5004276;28;20042;-46
2022/08/07 09:21:14;;;;;;;3.90;2.78;;;;;;;;;;4997155;28;20042;-46
2022/08/07 09:24:00;;;;;;;4.05;2.50;;;;;;;;;;5004208;28;20036;-46
2022/08/07 09:26:52;;;;;;;9.38;2.50;;;;;;;;;;5002906;28;20085;-49
2022/08/07 09:29:42;;;;;;;5.32;3.08;;;;;;;;;;5005096;28;20022;-47
2022/08/07 09:32:14;;;;;;;3.33;3.03;;;;;;;;;;5007002;28;20081;-49
2022/08/07 09:35:11;;;;;;;6.43;3.03;;;;;;;;;;5002054;28;20033;-47
2022/08/07 09:37:54;;;;;;;6.63;2.90;;;;;;;;;;5006217;28;20041;-48
2022/08/07 09:40:31;;;;;;;3.30;2.58;;;;;;;;;;5001476;28;20065;-46
2022/08/07 09:43:32;;;;;;;6.10;3.20;;;;;;;;;;5007537;28;20034;-49
2022/08/07 09:46:10;;;;;;;9.15;3.10;;;;;;;;;;5004349;28;20061;-46
2022/08/07 09:48:38;;;;;;;6.28;3.03;;;;;;;;;;5002368;28;20026;-47
2022/08/07 09:51:04;;;;;;;3.15;2.92;;;;;;;;;;5004942;28;20108;-50
2022/08/07 09:53:37;;;;;;;7.45;2.80;;;;;;;;;;5004811;28;20117;-47
2022/08/07 09:56:29;;;;;;;8.00;2.85;;;;;;;;;;5004832;28;20037;-51
2022/08/07 09:59:16;;;;;;;7.60;3.00;;;;;;;;;;5019298;28;20062;-47
2022/08/07 10:02:04;;;;;;;3.97;3.00;;;;;;;;;;5003059;28;20037;-49
2022/08/07 10:04:55;;;;;;;6.47;3.00;;;;;;;;;;5003709;28;20037;-46
2022/08/07 10:07:27;;;;;;;5.95;2.78;;;;;;;;;;5003742;28;20406;-50
2022/08/07 10:10:06;;;;;;;4.63;2.90;;;;;;;;;;5004328;28;20033;-48
2022/08/07 10:12:47;;;;;;;5.90;2.90;;;;;;;;;;5002415;28;20034;-47
2022/08/07 10:15:15;;;;;;;5.60;2.55;;;;;;;;;;5004385;28;20023;-49
2022/08/07 10:18:02;;;;;;;4.95;2.70;;;;;;;;;;5005959;28;20129;-46
2022/08/07 10:21:19;;;;;;;5.32;2.70;;;;;;;;;;5002148;28;20514;-48
2022/08/07 10:24:17;;;;;;;6.05;2.90;;;;;;;;;;4966334;28;20047;-47
2022/08/07 10:27:13;;;;;;;6.95;3.10;;;;;;;;;;4966017;28;20034;-50
2022/08/07 10:30:10;;;;;;;3.22;2.75;;;;;;;;;;4966887;28;20041;-49
2022/08/07 10:33:17;;;;;;;3.70;2.70;;;;;;;;;;4966136;28;20114;-49
2022/08/07 10:36:12;;;;;;;3.00;2.70;;;;;;;;;;4966382;28;20051;-50
2022/08/07 10:38:57;;;;;;;5.32;3.15;;;;;;;;;;4947519;28;20380;-46
2022/08/07 10:41:33;;;;;;;5.10;2.70;;;;;;;;;;4964013;28;20058;-46
2022/08/07 10:44:14;;;;;;;4.70;2.63;;;;;;;;;;4964051;28;20031;-46
2022/08/07 10:46:54;;;;;;;10.05;2.88;;;;;;;;;;4964742;28;20436;-48
2022/08/07 10:49:36;;;;;;;3.40;3.00;;;;;;;;;;4965814;28;20045;-46
2022/08/07 10:52:13;;;;;;;7.10;2.55;;;;;;;;;;4963935;28;20085;-48
2022/08/07 10:54:45;;;;;;;4.97;3.08;;;;;;;;;;4964208;28;20082;-49
2022/08/07 10:57:23;;;;;;;3.05;2.80;;;;;;;;;;4963671;28;20057;-48
2022/08/07 11:00:09;;;;;;;2.80;2.50;;;;;;;;;;4991700;28;20044;-48
2022/08/07 11:02:54;;;;;;;2.65;2.45;;;;;;;;;;5003153;28;20049;-48
2022/08/07 11:05:41;;;;;;;4.05;2.60;;;;;;;;;;5002546;28;20029;-49
2022/08/07 11:08:18;;;;;;;3.35;2.70;;;;;;;;;;5003181;28;20017;-50
2022/08/07 11:10:50;;;;;;;3.25;2.60;;;;;;;;;;5004815;28;20038;-47
2022/08/07 11:13:21;;;;;;;4.10;2.17;;;;;;;;;;5005371;28;20072;-47
2022/08/07 11:15:51;;;;;;;3.92;2.50;;;;;;;;;;5005001;28;20036;-49
2022/08/07 11:18:28;;;;;;;4.97;2.40;;;;;;;;;;5002844;28;20022;-47
2022/08/07 11:21:46;;;;;;;2.88;2.55;;;;;;;;;;5003019;28;20125;-48
2022/08/07 11:24:27;;;;;;;4.55;2.70;;;;;;;;;;4971760;28;20058;-48
2022/08/07 11:26:59;;;;;;;8.63;3.42;;;;;;;;;;4975134;28;20043;-46
2022/08/07 11:29:57;;;;;;;4.07;2.35;;;;;;;;;;4973867;28;20390;-47
2022/08/07 11:32:41;;;;;;;2.40;2.20;;;;;;;;;;4967850;28;20039;-47
2022/08/07 11:35:51;;;;;;;3.05;2.40;;;;;;;;;;4976745;28;20033;-48
2022/08/07 11:38:26;;;;;;;3.08;2.60;;;;;;;;;;4975094;28;20142;-47
2022/08/07 11:40:57;;;;;;;5.95;2.55;;;;;;;;;;4971524;28;20407;-46
2022/08/07 11:43:30;;;;;;;3.00;2.40;;;;;;;;;;4975044;28;20026;-47
2022/08/07 11:46:01;;;;;;;4.22;2.35;;;;;;;;;;4980708;28;20042;-46
2022/08/07 11:49:03;;;;;;;4.72;2.40;;;;;;;;;;4974283;28;20041;-46
2022/08/07 11:52:02;;;;;;;2.40;2.20;;;;;;;;;;4975399;28;20026;-48
2022/08/07 11:54:55;;;;;;;2.20;2.10;;;;;;;;;;4975632;28;20114;-47
2022/08/07 11:57:27;;;;;;;2.60;2.40;;;;;;;;;;4975285;28;20026;-48
2022/08/07 12:00:14;;;;;;;2.33;2.00;;;;;;;;;;4995803;28;20042;-50
2022/08/07 12:02:57;;;;;;;2.33;2.13;;;;;;;;;;5004281;28;20036;-47
2022/08/07 12:05:42;;;;;;;3.20;2.10;;;;;;;;;;5003961;28;20040;-47
2022/08/07 12:08:25;;;;;;;2.88;2.25;;;;;;;;;;5001320;28;20257;-52
2022/08/07 12:10:56;;;;;;;3.53;1.90;;;;;;;;;;5006025;28;20042;-51
2022/08/07 12:13:24;;;;;;;;;;;;;;;;;;5005130;28;20030;-47
2022/08/07 12:16:00;;;;;;;2.40;2.08;;;;;;;;;;5001947;28;19968;-48
2022/08/07 12:18:43;;;;;;;2.15;1.90;;;;;;;;;;5005539;28;20647;-48
2022/08/07 12:21:25;;;;;;;2.08;1.98;;;;;;;;;;5006281;28;20056;-47
2022/08/07 12:23:58;;;;;;;4.28;2.00;;;;;;;;;;5003914;28;20113;-51
2022/08/07 12:26:44;;;;;;;2.47;2.03;;;;;;;;;;5008337;28;20026;-51
2022/08/07 12:29:36;;;;;;;4.60;2.50;;;;;;;;;;5007684;28;20025;-47
2022/08/07 12:32:29;;;;;;;3.42;2.50;;;;;;;;;;4967648;28;20034;-46
2022/08/07 12:34:57;;;;;;;2.90;2.45;;;;;;;;;;4968844;28;20173;-48
2022/08/07 12:37:25;;;;;;;4.93;2.67;;;;;;;;;;4967747;28;20050;-47
2022/08/07 12:39:54;;;;;;;2.60;2.50;;;;;;;;;;4967589;28;20054;-48
2022/08/07 12:42:26;;;;;;;6.13;2.55;;;;;;;;;;4968237;28;20042;-50
2022/08/07 12:44:52;;;;;;;;;;;;;;;;;;4968777;28;20035;-48
2022/08/07 12:47:48;;;;;;;3.13;2.60;;;;;;;;;;4968116;28;20585;-47
2022/08/07 12:50:23;;;;;;;4.47;2.55;;;;;;;;;;4964429;28;20432;-47
2022/08/07 12:52:59;;;;;;;2.88;2.45;;;;;;;;;;4967880;28;20030;-50
2022/08/07 12:55:39;;;;;;;3.67;2.70;;;;;;;;;;4968104;28;20070;-47
2022/08/07 12:58:06;;;;;;;11.15;2.75;;;;;;;;;;4969092;28;20047;-46
2022/08/07 13:00:52;;;;;;;3.80;2.50;;;;;;;;;;4967495;28;20035;-48
2022/08/07 13:03:34;;;;;;;5.78;2.63;;;;;;;;;;4967625;28;20590;-46
2022/08/07 13:06:00;;;;;;;4.30;2.63;;;;;;;;;;4966262;28;20045;-47
2022/08/07 13:08:37;;;;;;;3.22;2.85;;;;;;;;;;4980256;28;20034;-50
2022/08/07 13:11:12;;;;;;;4.15;2.42;;;;;;;;;;5006707;28;20030;-46
2022/08/07 13:14:06;;;;;;;5.85;2.88;;;;;;;;;;5002814;28;20026;-46
2022/08/07 13:16:47;;;;;;;4.75;2.85;;;;;;;;;;5004673;28;20076;-46
2022/08/07 13:19:32;;;;;;;4.53;3.25;;;;;;;;;;5006660;28;20442;-48
2022/08/07 13:21:57;;;;;;;3.22;2.22;;;;;;;;;;5006427;28;20034;-48
2022/08/07 13:24:37;;;;;;;2.40;2.20;;;;;;;;;;5003132;28;20100;-47
2022/08/07 13:27:17;;;;;;;1.98;1.77;;;;;;;;;;5005869;28;20044;-48
2022/08/07 13:30:03;;;;;;;3.63;1.70;;;;;;;;;;5004290;28;20034;-49
2022/08/07 13:32:49;;;;;;;2.50;1.80;;;;;;;;;;5007141;28;20030;-45
2022/08/07 13:35:26;;;;;;;3.55;1.80;;;;;;;;;;5005130;28;20038;-48
2022/08/07 13:38:23;;;;;;;5.95;1.90;;;;;;;;;;5007335;28;20090;-51
2022/08/07 13:41:20;;;;;;;1.90;1.80;;;;;;;;;;5004942;28;20033;-46
2022/08/07 13:43:49;;;;;;;1.90;1.80;;;;;;;;;;5007257;28;20470;-48
2022/08/07 13:46:16;;;;;;;2.67;1.70;;;;;;;;;;5006547;28;20475;-50
2022/08/07 13:48:49;;;;;;;2.72;1.88;;;;;;;;;;5003651;28;20049;-47
2022/08/07 13:51:15;;;;;;;1.80;1.70;;;;;;;;;;5005692;28;20083;-49
2022/08/07 13:53:51;;;;;;;4.45;1.60;;;;;;;;;;5006146;28;20467;-46
2022/08/07 13:56:20;;;;;;;1.50;1.40;;;;;;;;;;5003910;28;20034;-47
2022/08/07 13:59:01;;;;;;;3.00;2.42;;;;;;;;;;5002403;28;20042;-46
2022/08/07 14:01:37;;;;;;;3.05;1.48;;;;;;;;;;5005755;28;20475;-47
2022/08/07 14:04:14;;;;;;;5.57;1.83;;;;;;;;;;5004332;28;20036;-48
2022/08/07 14:06:43;;;;;;;2.70;1.70;;;;;;;;;;5005729;28;20033;-48
2022/08/07 14:09:16;;;;;;;3.80;1.75;;;;;;;;;;5006366;28;20033;-49
2022/08/07 14:11:46;;;;;;;4.63;1.80;;;;;;;;;;5004902;28;20024;-46
2022/08/07 14:14:14;;;;;;;3.92;1.58;;;;;;;;;;5002139;28;20095;-48
2022/08/07 14:16:46;;;;;;;3.33;1.90;;;;;;;;;;5001977;28;20033;-51
2022/08/07 14:19:27;;;;;;;1.80;1.70;;;;;;;;;;5006205;28;20068;-51
2022/08/07 14:21:53;;;;;;;;;;;;;;;;;;5005548;28;20030;-47
2022/08/07 14:24:32;;;;;;;3.00;1.80;;;;;;;;;;5005428;28;20428;-46
2022/08/07 14:27:03;;;;;;;1.92;1.58;;;;;;;;;;4999624;28;20034;-46
2022/08/07 14:29:35;;;;;;;1.70;1.60;;;;;;;;;;5006411;28;20534;-48
2022/08/07 14:32:06;;;;;;;3.65;1.52;;;;;;;;;;5000697;28;20045;-49
2022/08/07 14:34:32;;;;;;;;;;;;;;;;;;5004806;28;20018;-47
2022/08/07 14:37:01;;;;;;;9.23;1.70;;;;;;;;;;5006306;28;19956;-47
2022/08/07 14:39:28;;;;;;;2.20;1.70;;;;;;;;;;5002065;28;20029;-47
2022/08/07 14:41:56;;;;;;;2.97;1.60;;;;;;;;;;5003386;28;20040;-46
2022/08/07 14:44:22;;;;;;;3.83;2.17;;;;;;;;;;5003492;28;20392;-50
2022/08/07 14:46:52;;;;;;;1.92;1.60;;;;;;;;;;5006032;28;20429;-50
2022/08/07 14:49:26;;;;;;;3.25;1.85;;;;;;;;;;4996354;28;20506;-49
2022/08/07 14:51:56;;;;;;;2.90;1.83;;;;;;;;;;5005279;28;20038;-49
2022/08/07 14:54:23;;;;;;;6.32;2.00;;;;;;;;;;5002794;28;20026;-51
2022/08/07 14:56:49;;;;;;;1.75;1.58;;;;;;;;;;5005218;28;20030;-48
2022/08/07 14:59:20;;;;;;;5.10;1.80;;;;;;;;;;5004446;28;20038;-49
2022/08/07 15:01:46;;;;;;;2.63;1.88;;;;;;;;;;5004480;28;20033;-46
2022/08/07 15:04:13;;;;;;;4.68;1.65;;;;;;;;;;5000531;28;20034;-48
2022/08/07 15:06:41;;;;;;;1.77;1.67;;;;;;;;;;5003992;28;20360;-48
2022/08/07 15:09:10;;;;;;;3.60;1.60;;;;;;;;;;5004903;28;20026;-47
2022/08/07 15:11:46;;;;;;;2.88;2.00;;;;;;;;;;5000576;28;20030;-51
2022/08/07 15:14:22;;;;;;;5.80;1.60;;;;;;;;;;5003919;28;20038;-47
2022/08/07 15:16:55;;;;;;;1.55;1.45;;;;;;;;;;5004087;28;20033;-48
2022/08/07 15:19:29;;;;;;;1.80;1.70;;;;;;;;;;5002017;28;20034;-47
2022/08/07 15:22:02;;;;;;;3.10;1.67;;;;;;;;;;5003768;28;20585;-47
2022/08/07 15:24:41;;;;;;;1.58;1.48;;;;;;;;;;5000972;28;20095;-50
2022/08/07 15:27:10;;;;;;;1.83;1.70;;;;;;;;;;5002355;28;20030;-46